Погода Малосана 2 недели

Южная Провинция, Малави

22 июля-03 августа
  • 22июля
    Сегодня
    +13°
    +27°
    Небольшая облачность
    ВремяПогодаТемператураВлажностьДавлениеВетер, м/сВероятность осадков
    02:00Ясно и безоблачно+16°C70 %688 мм1.5 м/с5 %
    05:00Практически безоблачно+13°C92 %688 мм1.4 м/с5 %
    08:00Небольшая облачность+17°C82 %691 мм1.4 м/с3 %
    11:00Облачно с прояснениями+23°C51 %691 мм0.9 м/с5 %
    14:00Небольшая облачность+26°C40 %690 мм1.4 м/с5 %
    17:00Практически безоблачно+23°C45 %690 мм1.0 м/с5 %
    20:00Ясно и безоблачно+19°C57 %690 мм0.6 м/с5 %
    23:00Ясно и безоблачно+16°C62 %690 мм0.3 м/с5 %
  • 23июля
    Вторник
    +12°
    +27°
    Ясно и безоблачно
    ВремяПогодаТемператураВлажностьДавлениеВетер, м/сВероятность осадков
    02:00Ясно и безоблачно+16°C66 %689 мм0.6 м/с5 %
    05:00Ясно и безоблачно+12°C76 %689 мм1.2 м/с5 %
    08:00Ясно и безоблачно+19°C56 %692 мм1.1 м/с5 %
    11:00Ясно и безоблачно+23°C31 %692 мм1.3 м/с5 %
    14:00Ясно и безоблачно+27°C24 %691 мм2.1 м/с5 %
    17:00Ясно и безоблачно+24°C25 %690 мм2.3 м/с5 %
    20:00Облачно с прояснениями+18°C38 %691 мм1.6 м/с5 %
    23:00Небольшая облачность+16°C61 %690 мм1.2 м/с5 %
  • 24июля
    Среда
    +14°
    +27°
    Небольшая облачность
    ВремяПогодаТемператураВлажностьДавлениеВетер, м/сВероятность осадков
    02:00Небольшая облачность+13°C85 %689 мм1.3 м/с5 %
    05:00Небольшая облачность+12°C84 %688 мм0.9 м/с5 %
    08:00Небольшая облачность+18°C56 %691 мм0.9 м/с5 %
    11:00Облачно с прояснениями+22°C31 %691 мм1.1 м/с5 %
    14:00Небольшая облачность+27°C21 %689 мм1.7 м/с5 %
    17:00Ясно и безоблачно+23°C27 %688 мм1.5 м/с5 %
    20:00Ясно и безоблачно+19°C36 %688 мм0.5 м/с5 %
    23:00Ясно и безоблачно+17°C38 %687 мм0.7 м/с5 %
  • 25июля
    Четверг
    +16°
    +29°
    Ясно и безоблачно
    ВремяПогодаТемператураВлажностьДавлениеВетер, м/сВероятность осадков
    02:00Ясно и безоблачно+17°C47 %686 мм0.5 м/с5 %
    05:00Ясно и безоблачно+14°C50 %686 мм0.7 м/с5 %
    08:00Ясно и безоблачно+20°C37 %688 мм0.6 м/с5 %
    11:00Ясно и безоблачно+24°C23 %688 мм0.5 м/с5 %
    14:00Ясно и безоблачно+28°C13 %687 мм2.4 м/с5 %
    17:00Ясно и безоблачно+24°C26 %686 мм1.5 м/с5 %
    20:00Ясно и безоблачно+18°C27 %686 мм0.3 м/с5 %
    23:00Ясно и безоблачно+17°C29 %686 мм0.3 м/с5 %
Мы используем cookies
Соглашаюсь